Time;durP1;ratioP1;P1;durP2;ratioP2;P2;SDS_P1;SDS_P2;PMS_P1;PMS_P2;Temp;Humidity;BMP_temperature;BMP_pressure;BME280_temperature;BME280_humidity;BME280_pressure;Samples;Min_cycle;Max_cycle;Signal;HPM_P1;HPM_P2
2023/07/02 00:00:07;;;;;;;6.82;4.30;;;;;;;21.87;100.00;99595.81;5004774;28;20152;-72
2023/07/02 00:02:33;;;;;;;5.32;3.03;;;;;;;21.32;100.00;99502.09;5000599;28;20049;-72
2023/07/02 00:04:58;;;;;;;7.55;6.05;;;;;;;21.73;100.00;99584.22;4981880;28;20033;-73
2023/07/02 00:07:25;;;;;;;9.90;3.85;;;;;;;21.27;100.00;99511.22;5004570;28;20034;-73
2023/07/02 00:09:51;;;;;;;8.50;5.10;;;;;;;21.27;100.00;99523.69;5008206;28;20045;-73
2023/07/02 00:12:17;;;;;;;6.53;3.95;;;;;;;21.70;100.00;99583.47;5007845;28;20136;-72
2023/07/02 00:14:43;;;;;;;8.23;4.13;;;;;;;21.70;100.00;99594.16;5002689;28;20141;-74
2023/07/02 00:17:12;;;;;;;6.82;4.20;;;;;;;21.09;100.00;99488.28;4997149;28;20528;-73
2023/07/02 00:19:41;;;;;;;6.93;4.80;;;;;;;21.47;100.00;99558.13;4999733;28;20139;-73
2023/07/02 00:22:09;;;;;;;9.57;4.45;;;;;;;20.98;100.00;99504.91;5007468;28;20038;-73
2023/07/02 00:24:36;;;;;;;7.35;4.15;;;;;;;20.79;100.00;99470.44;5007778;28;20057;-72
2023/07/02 00:27:02;;;;;;;6.57;3.70;;;;;;;21.28;100.00;99542.31;4987864;28;20038;-73
2023/07/02 00:29:27;;;;;;;7.30;4.07;;;;;;;21.06;100.00;99529.31;5007262;28;20636;-73
2023/07/02 00:31:53;;;;;;;8.57;3.55;;;;;;;20.54;100.00;99496.75;5004459;28;20026;-73
2023/07/02 00:34:19;;;;;;;7.97;3.55;;;;;;;20.58;100.00;99493.84;4995622;28;20042;-73
2023/07/02 00:36:44;;;;;;;12.07;4.55;;;;;;;21.31;100.00;99610.66;4997630;28;20053;-74
2023/07/02 00:39:11;;;;;;;7.93;4.53;;;;;;;20.93;100.00;99568.34;5006929;28;20103;-72
2023/07/02 00:41:37;;;;;;;8.10;4.57;;;;;;;21.07;100.00;99565.75;5007039;28;20056;-75
2023/07/02 00:44:03;;;;;;;6.63;3.70;;;;;;;20.70;100.00;99534.97;4999116;28;20029;-72
2023/07/02 00:46:30;;;;;;;6.25;3.60;;;;;;;21.04;100.00;99571.22;4994658;28;20084;-74
2023/07/02 00:48:55;;;;;;;5.00;3.65;;;;;;;20.15;100.00;99484.66;5004244;28;20058;-73
2023/07/02 00:51:26;;;;;;;6.65;3.97;;;;;;;20.63;100.00;99570.91;5004791;28;20080;-72
2023/07/02 00:53:54;;;;;;;6.75;4.18;;;;;;;20.41;100.00;99523.19;4989249;28;20132;-73
2023/07/02 00:56:21;;;;;;;4.45;3.65;;;;;;;19.84;100.00;99473.00;5006718;28;20041;-72
2023/07/02 00:58:50;;;;;;;5.97;3.40;;;;;;;20.74;100.00;99591.63;4998821;28;20038;-73
2023/07/02 01:01:22;;;;;;;5.93;4.25;;;;;;;20.34;100.00;99529.81;5004811;28;20129;-74
2023/07/02 01:03:56;;;;;;;8.20;3.63;;;;;;;20.08;100.00;99476.13;5005214;28;20069;-72
2023/07/02 01:06:27;;;;;;;6.00;4.15;;;;;;;20.46;100.00;99566.44;5006754;28;20128;-72
2023/07/02 01:09:02;;;;;;;8.18;4.63;;;;;;;20.55;100.00;99581.06;5007027;28;20129;-72
2023/07/02 01:11:44;;;;;;;6.88;4.20;;;;;;;20.18;100.00;99504.00;5006488;28;20044;-72
2023/07/02 01:14:18;;;;;;;8.75;5.20;;;;;;;20.62;100.00;99583.34;4996712;28;20030;-73
2023/07/02 01:16:46;;;;;;;7.32;5.35;;;;;;;20.06;100.00;99509.13;5007373;28;20052;-72
2023/07/02 01:19:21;;;;;;;8.93;4.40;;;;;;;20.09;100.00;99557.78;4989081;28;21218;-72
2023/07/02 01:21:48;;;;;;;4.90;3.53;;;;;;;20.32;100.00;99553.88;5006153;28;20042;-73
2023/07/02 01:24:15;;;;;;;7.38;5.40;;;;;;;20.15;100.00;99567.22;5006624;28;20046;-74
2023/07/02 01:26:41;;;;;;;10.07;4.80;;;;;;;19.40;100.00;99465.50;5004419;28;20037;-75
2023/07/02 01:29:15;;;;;;;5.50;4.20;;;;;;;19.70;100.00;99500.34;4998904;28;20064;-73
2023/07/02 01:31:40;;;;;;;5.90;3.35;;;;;;;18.96;100.00;99387.09;5003249;28;20030;-73
2023/07/02 01:34:07;;;;;;;10.88;3.40;;;;;;;19.64;100.00;99479.34;5004460;28;20561;-75
2023/07/02 01:36:33;;;;;;;8.23;3.45;;;;;;;20.21;100.00;99597.09;4984691;28;20452;-72
2023/07/02 01:38:59;;;;;;;8.38;3.85;;;;;;;20.00;100.00;99582.22;5003275;28;20038;-73
2023/07/02 01:41:24;;;;;;;5.50;3.60;;;;;;;19.63;100.00;99488.28;4997479;28;20350;-73
2023/07/02 01:43:50;;;;;;;6.43;3.78;;;;;;;19.82;100.00;99514.81;4999518;28;20034;-73
2023/07/02 01:46:15;;;;;;;7.15;4.10;;;;;;;19.62;100.00;99531.81;5006755;28;20688;-75
2023/07/02 01:48:40;;;;;;;6.30;3.70;;;;;;;20.06;100.00;99579.22;5006864;28;20584;-72
2023/07/02 01:51:06;;;;;;;4.38;3.28;;;;;;;19.61;100.00;99514.94;5004968;28;20401;-73
2023/07/02 01:53:31;;;;;;;7.20;5.07;;;;;;;19.52;100.00;99509.25;4996159;28;20056;-73
2023/07/02 01:55:57;;;;;;;7.60;4.30;;;;;;;19.30;100.00;99494.38;5000085;28;20034;-73
2023/07/02 01:58:22;;;;;;;5.47;3.60;;;;;;;19.69;100.00;99516.38;4996540;28;20069;-73
2023/07/02 02:00:48;;;;;;;5.85;4.13;;;;;;;19.66;100.00;99509.41;5001516;28;20452;-72
2023/07/02 02:03:13;;;;;;;6.47;3.85;;;;;;;19.58;100.00;99504.47;5002741;28;20128;-73
2023/07/02 02:05:39;;;;;;;9.02;4.45;;;;;;;20.33;100.00;99605.38;5001729;28;20465;-72
2023/07/02 02:08:04;;;;;;;7.72;4.50;;;;;;;20.24;100.00;99572.94;5005819;28;20030;-73
2023/07/02 02:10:30;;;;;;;7.78;4.03;;;;;;;20.17;100.00;99579.53;4999911;28;20760;-73
2023/07/02 02:12:55;;;;;;;6.93;4.03;;;;;;;20.44;100.00;99587.84;5006268;28;20096;-74
2023/07/02 02:15:21;;;;;;;5.43;4.15;;;;;;;20.54;100.00;99606.03;4988384;28;20046;-74
2023/07/02 02:17:46;;;;;;;5.78;3.33;;;;;;;19.74;100.00;99488.59;5005994;28;20474;-81
2023/07/02 02:20:12;;;;;;;8.98;4.35;;;;;;;20.43;100.00;99599.44;5006274;28;20107;-81
2023/07/02 02:22:38;;;;;;;8.00;3.83;;;;;;;20.50;100.00;99585.81;5003030;28;20286;-79
2023/07/02 02:25:04;;;;;;;5.90;3.58;;;;;;;19.89;100.00;99491.41;4993527;28;20038;-79
2023/07/02 02:27:29;;;;;;;7.57;4.90;;;;;;;20.06;100.00;99509.97;5007784;28;20522;-79
2023/07/02 02:29:54;;;;;;;6.47;3.28;;;;;;;20.39;100.00;99570.38;5010257;28;20049;-78
2023/07/02 02:32:21;;;;;;;6.95;4.13;;;;;;;19.97;100.00;99483.84;5005575;28;20505;-79
2023/07/02 02:34:47;;;;;;;5.78;3.45;;;;;;;20.21;100.00;99519.81;4992417;28;20026;-78
2023/07/02 02:37:12;;;;;;;5.72;4.13;;;;;;;20.02;100.00;99473.81;5004521;28;20129;-78
2023/07/02 02:39:38;;;;;;;5.47;3.28;;;;;;;20.61;100.00;99573.63;5005206;28;20069;-77
2023/07/02 02:42:04;;;;;;;7.97;4.80;;;;;;;20.11;100.00;99488.44;5009424;28;20053;-79
2023/07/02 02:44:29;;;;;;;8.40;5.43;;;;;;;20.23;100.00;99517.09;5009404;28;20049;-79
2023/07/02 02:46:55;;;;;;;7.82;5.25;;;;;;;20.61;100.00;99583.44;5009576;28;20018;-80
2023/07/02 02:49:20;;;;;;;5.72;3.83;;;;;;;20.71;100.00;99597.13;5009158;28;20137;-82
2023/07/02 02:51:46;;;;;;;8.02;3.78;;;;;;;20.51;100.00;99576.84;5000810;28;20046;-81
2023/07/02 02:54:11;;;;;;;5.40;3.50;;;;;;;20.11;100.00;99485.75;5001273;28;20036;-80
2023/07/02 02:56:37;;;;;;;5.00;3.75;;;;;;;20.54;100.00;99547.38;4998985;28;20646;-82
2023/07/02 02:59:02;;;;;;;11.35;4.35;;;;;;;20.11;100.00;99481.31;5007179;28;20109;-79
2023/07/02 03:01:30;;;;;;;4.28;3.13;;;;;;;20.69;100.00;99591.88;5000944;28;20034;-82
2023/07/02 03:03:58;;;;;;;6.60;4.22;;;;;;;20.77;100.00;99591.47;5007240;28;20041;-80
2023/07/02 03:06:24;;;;;;;4.53;2.83;;;;;;;20.23;100.00;99528.59;5003996;28;20042;-79
2023/07/02 03:08:50;;;;;;;5.95;3.78;;;;;;;20.82;100.00;99594.75;5009267;28;20041;-79
2023/07/02 03:11:15;;;;;;;5.80;3.45;;;;;;;20.27;100.00;99510.63;5008660;28;20116;-84
2023/07/02 03:13:40;;;;;;;5.20;3.80;;;;;;;20.28;100.00;99503.50;5010033;28;20029;-79
2023/07/02 03:16:06;;;;;;;6.03;3.92;;;;;;;20.80;100.00;99593.97;5008700;28;20038;-81
2023/07/02 03:18:32;;;;;;;5.95;3.33;;;;;;;20.72;100.00;99588.19;5007526;28;20073;-79
2023/07/02 03:20:58;;;;;;;6.88;3.97;;;;;;;20.86;100.00;99598.94;4999916;28;20039;-81
2023/07/02 03:23:23;;;;;;;5.13;3.67;;;;;;;20.35;100.00;99503.09;5006623;28;20050;-80
2023/07/02 03:25:49;;;;;;;4.65;3.83;;;;;;;20.40;100.00;99511.69;5009154;28;20034;-78
2023/07/02 03:28:14;;;;;;;5.03;3.60;;;;;;;20.71;100.00;99557.13;5006539;28;20505;-80
2023/07/02 03:30:40;;;;;;;5.22;3.63;;;;;;;20.98;100.00;99603.59;5002356;28;20456;-80
2023/07/02 03:33:05;;;;;;;7.25;4.20;;;;;;;20.80;100.00;99572.63;5003097;28;20070;-80
2023/07/02 03:35:31;;;;;;;5.97;3.72;;;;;;;20.97;100.00;99574.34;5008520;28;20053;-80
2023/07/02 03:37:57;;;;;;;5.95;3.90;;;;;;;20.84;100.00;99556.38;5010113;28;20481;-80
2023/07/02 03:40:23;;;;;;;5.43;3.83;;;;;;;21.01;100.00;99579.41;5008936;28;20045;-80
2023/07/02 03:42:48;;;;;;;6.03;3.33;;;;;;;20.47;100.00;99496.22;5009197;28;20133;-82
2023/07/02 03:45:14;;;;;;;8.48;3.83;;;;;;;21.02;100.00;99567.78;5007526;28;20469;-82
2023/07/02 03:47:39;;;;;;;5.10;3.28;;;;;;;21.24;100.00;99602.13;5004091;28;20041;-80
2023/07/02 03:50:05;;;;;;;5.13;4.00;;;;;;;21.22;100.00;99589.81;5002571;28;20103;-81
2023/07/02 03:52:30;;;;;;;5.13;3.47;;;;;;;20.72;100.00;99502.84;5012122;28;20461;-81
2023/07/02 03:54:56;;;;;;;5.43;4.40;;;;;;;20.98;100.00;99528.06;5013947;28;20782;-80
2023/07/02 03:57:21;;;;;;;11.32;4.45;;;;;;;20.79;100.00;99491.78;5009034;28;20081;-82
2023/07/02 03:59:47;;;;;;;8.20;4.65;;;;;;;21.32;100.00;99577.66;5008263;28;20045;-82
2023/07/02 04:02:12;;;;;;;6.07;3.50;;;;;;;21.10;100.00;99569.19;4999032;28;20106;-82
2023/07/02 04:04:38;;;;;;;3.88;2.78;;;;;;;21.31;100.00;99581.28;5005214;28;20664;-82
2023/07/02 04:07:03;;;;;;;7.40;3.83;;;;;;;21.44;100.00;99602.81;5003427;28;20077;-80
2023/07/02 04:09:29;;;;;;;6.00;4.28;;;;;;;21.47;100.00;99608.84;4997829;28;20046;-80
2023/07/02 04:11:54;;;;;;;5.68;3.65;;;;;;;21.57;100.00;99621.66;5005107;28;20130;-82
2023/07/02 04:14:20;;;;;;;6.38;4.25;;;;;;;21.08;100.00;99537.25;4992083;28;20022;-81
2023/07/02 04:16:45;;;;;;;5.15;3.03;;;;;;;21.45;100.00;99609.88;5007337;28;20081;-84
2023/07/02 04:19:11;;;;;;;5.32;3.60;;;;;;;21.45;100.00;99592.06;5014430;28;20103;-81
2023/07/02 04:21:36;;;;;;;7.97;3.72;;;;;;;21.53;100.00;99620.97;5005921;28;20550;-82
2023/07/02 04:24:02;;;;;;;9.68;5.03;;;;;;;21.23;100.00;99564.84;5002357;28;20092;-81
2023/07/02 04:26:27;;;;;;;5.57;3.53;;;;;;;21.56;100.00;99631.44;4987211;28;20092;-82
2023/07/02 04:28:54;;;;;;;8.68;3.88;;;;;;;21.52;100.00;99605.03;4999706;28;20033;-81
2023/07/02 04:31:20;;;;;;;8.63;4.25;;;;;;;21.61;100.00;99621.41;5009297;28;20042;-82
2023/07/02 04:33:46;;;;;;;6.60;4.22;;;;;;;21.59;100.00;99625.97;5010837;28;20041;-82
2023/07/02 04:36:12;;;;;;;4.53;3.47;;;;;;;21.71;100.00;99638.59;5003011;28;20037;-83
2023/07/02 04:38:39;;;;;;;8.10;4.05;;;;;;;21.69;100.00;99642.31;5009155;28;20050;-80
2023/07/02 04:41:05;;;;;;;7.05;3.67;;;;;;;21.79;100.00;99627.44;5004646;28;20473;-80
2023/07/02 04:43:33;;;;;;;6.15;3.72;;;;;;;21.53;100.00;99593.41;5006531;28;20026;-80
2023/07/02 04:45:59;;;;;;;9.63;4.45;;;;;;;21.70;100.00;99618.19;5006952;28;20046;-81
2023/07/02 04:48:24;;;;;;;6.55;3.47;;;;;;;21.66;100.00;99615.78;5003416;28;20609;-79
2023/07/02 04:50:50;;;;;;;8.15;3.63;;;;;;;21.03;100.00;99542.00;5008447;28;20476;-81
2023/07/02 04:53:15;;;;;;;7.65;4.88;;;;;;;21.79;100.00;99635.47;4999121;28;20574;-87
2023/07/02 04:55:41;;;;;;;7.10;3.90;;;;;;;21.70;100.00;99609.28;5008894;28;20038;-82
2023/07/02 04:58:07;;;;;;;7.35;4.13;;;;;;;21.40;100.00;99546.09;5004686;28;20468;-80
2023/07/02 05:00:32;;;;;;;6.03;4.18;;;;;;;21.62;100.00;99556.34;4998785;28;20058;-83
2023/07/02 05:02:58;;;;;;;5.68;4.55;;;;;;;22.25;100.00;99631.88;5006017;28;20076;-81
2023/07/02 05:05:23;;;;;;;5.75;3.92;;;;;;;22.23;100.00;99631.13;5017045;28;20741;-83
2023/07/02 05:07:49;;;;;;;7.30;5.40;;;;;;;22.03;100.00;99629.59;5010480;28;20040;-82
2023/07/02 05:10:14;;;;;;;7.07;4.22;;;;;;;21.91;100.00;99609.81;5006579;28;20046;-81
2023/07/02 05:12:40;;;;;;;7.85;4.63;;;;;;;21.92;100.00;99544.78;5003983;28;20041;-81
2023/07/02 05:15:06;;;;;;;6.95;4.97;;;;;;;22.42;100.00;99609.47;5007424;28;20133;-83
2023/07/02 05:17:34;;;;;;;9.70;4.20;;;;;;;22.48;100.00;99564.50;5008861;28;20038;-81
2023/07/02 05:20:00;;;;;;;5.95;4.43;;;;;;;22.74;100.00;99613.66;5011612;28;20056;-80
2023/07/02 05:22:26;;;;;;;4.72;3.17;;;;;;;22.39;100.00;99495.56;5009441;28;20733;-79
2023/07/02 05:24:51;;;;;;;5.43;4.05;;;;;;;22.66;100.00;99540.19;5010896;28;20069;-80
2023/07/02 05:27:17;;;;;;;6.18;4.00;;;;;;;23.22;100.00;99548.19;5015712;28;20053;-86
2023/07/02 05:29:43;;;;;;;5.85;3.85;;;;;;;23.90;100.00;99638.31;5007626;28;20042;-80
2023/07/02 05:32:09;;;;;;;20.75;7.15;;;;;;;22.91;100.00;99542.16;5009581;28;20749;-82
2023/07/02 05:34:34;;;;;;;7.20;3.70;;;;;;;23.16;100.00;99603.88;5007983;28;20033;-80
2023/07/02 05:37:00;;;;;;;5.82;3.55;;;;;;;22.87;100.00;99572.75;5013899;28;20114;-79
2023/07/02 05:39:25;;;;;;;6.70;4.00;;;;;;;23.33;100.00;99575.97;5017898;28;20042;-79
2023/07/02 05:41:51;;;;;;;6.82;4.20;;;;;;;24.44;100.00;99641.72;4991991;28;20038;-81
2023/07/02 05:44:16;;;;;;;7.95;5.13;;;;;;;25.01;100.00;99645.75;5011521;28;20077;-82
2023/07/02 05:46:42;;;;;;;8.25;3.70;;;;;;;24.67;100.00;99592.78;5002540;28;20029;-84
2023/07/02 05:49:08;;;;;;;5.68;3.78;;;;;;;23.73;100.00;99529.56;5008661;28;20072;-79
2023/07/02 05:51:33;;;;;;;6.13;4.00;;;;;;;25.19;100.00;99640.91;5022101;28;20058;-80
2023/07/02 05:53:59;;;;;;;6.47;3.05;;;;;;;26.04;100.00;99646.22;5010928;28;20037;-81
2023/07/02 05:56:24;;;;;;;9.10;3.85;;;;;;;25.90;100.00;99553.16;5015987;28;20046;-81
2023/07/02 05:58:50;;;;;;;4.88;3.97;;;;;;;26.12;100.00;99645.59;4991598;28;20041;-82
2023/07/02 06:01:15;;;;;;;5.72;3.65;;;;;;;26.13;100.00;99569.34;5007630;28;20038;-88
2023/07/02 06:03:43;;;;;;;5.18;3.75;;;;;;;26.66;100.00;99627.97;5012363;28;20161;-80
2023/07/02 06:06:08;;;;;;;6.63;3.58;;;;;;;25.74;100.00;99606.38;5017596;28;20049;-82
2023/07/02 06:08:34;;;;;;;6.22;3.90;;;;;;;25.11;100.00;99564.53;5018481;28;20053;-80
2023/07/02 06:10:59;;;;;;;5.15;3.58;;;;;;;26.06;100.00;99635.34;5003072;28;20030;-82
2023/07/02 06:13:25;;;;;;;5.75;3.28;;;;;;;26.78;100.00;99637.75;5012001;28;20049;-84
2023/07/02 06:15:50;;;;;;;7.20;4.82;;;;;;;26.24;100.00;99526.31;5000558;28;20053;-83
2023/07/02 06:18:17;;;;;;;6.32;4.00;;;;;;;26.45;100.00;99655.56;5012014;28;20107;-82
2023/07/02 06:20:43;;;;;;;8.23;4.95;;;;;;;26.59;100.00;99651.84;4989745;28;20054;-81
2023/07/02 06:23:08;;;;;;;6.50;3.42;;;;;;;26.17;100.00;99654.16;5006566;28;20046;-82
2023/07/02 06:25:34;;;;;;;7.63;4.05;;;;;;;25.81;100.00;99577.19;4987004;28;20027;-79
2023/07/02 06:28:00;;;;;;;5.00;3.90;;;;;;;25.93;100.00;99575.41;5004101;28;20062;-80
2023/07/02 06:30:26;;;;;;;5.00;4.22;;;;;;;26.87;100.00;99622.72;5010599;28;20453;-80
2023/07/02 06:32:51;;;;;;;4.50;3.38;;;;;;;26.52;100.00;99610.22;5014513;28;20117;-79
2023/07/02 06:35:17;;;;;;;4.85;3.10;;;;;;;26.67;100.00;99583.97;5008569;28;20773;-81
2023/07/02 06:37:43;;;;;;;5.32;3.70;;;;;;;26.68;100.00;99564.13;5026840;28;20041;-86
2023/07/02 06:40:09;;;;;;;6.50;3.88;;;;;;;27.29;100.00;99580.66;5011759;28;20121;-79
2023/07/02 06:42:38;;;;;;;6.40;4.20;;;;;;;27.42;100.00;99611.97;5004008;28;20208;-82
2023/07/02 06:45:04;;;;;;;3.97;3.15;;;;;;;27.76;100.00;99634.28;5002311;28;20054;-81
2023/07/02 06:47:30;;;;;;;4.68;2.40;;;;;;;26.77;100.00;99643.28;5017840;28;20037;-79
2023/07/02 06:49:55;;;;;;;5.50;3.85;;;;;;;27.40;100.00;99630.97;5001554;28;20549;-79
2023/07/02 06:52:21;;;;;;;10.50;3.17;;;;;;;27.52;100.00;99634.50;5010529;28;20058;-81
2023/07/02 06:54:46;;;;;;;5.22;3.42;;;;;;;26.74;100.00;99563.66;5010311;28;20084;-80
2023/07/02 06:57:15;;;;;;;5.53;3.00;;;;;;;26.87;100.00;99576.94;5005959;28;20387;-80
2023/07/02 06:59:40;;;;;;;12.57;4.95;;;;;;;27.06;100.00;99579.00;5014238;28;20068;-81
2023/07/02 07:02:06;;;;;;;5.00;2.80;;;;;;;27.28;100.00;99537.72;4998218;28;20022;-85
2023/07/02 07:04:32;;;;;;;4.90;3.33;;;;;;;27.77;100.00;99638.69;5004370;28;20143;-81
2023/07/02 07:06:57;;;;;;;4.15;3.20;;;;;;;28.10;100.00;99637.69;5007552;28;20045;-81
2023/07/02 07:09:23;;;;;;;4.70;3.08;;;;;;;27.63;100.00;99610.19;5010621;28;20100;-80
2023/07/02 07:11:49;;;;;;;4.93;3.70;;;;;;;27.67;100.00;99654.75;5010587;28;20052;-82
2023/07/02 07:14:14;;;;;;;6.88;4.55;;;;;;;27.08;100.00;99587.81;5011052;28;20049;-83
2023/07/02 07:16:41;;;;;;;6.15;3.78;;;;;;;27.16;100.00;99582.66;5015675;28;20464;-80
2023/07/02 07:19:07;;;;;;;6.22;3.85;;;;;;;27.93;100.00;99630.19;5010856;28;20037;-86
2023/07/02 07:21:34;;;;;;;5.38;3.95;;;;;;;27.20;100.00;99584.13;5010658;28;20074;-79
2023/07/02 07:23:59;;;;;;;4.18;2.45;;;;;;;27.73;100.00;99643.47;5015728;28;20076;-79
2023/07/02 07:26:29;;;;;;;5.68;3.30;;;;;;;28.11;100.00;99647.50;5008900;28;20429;-79
2023/07/02 07:28:55;;;;;;;5.75;2.95;;;;;;;27.10;100.00;99559.75;4992368;28;20486;-81
2023/07/02 07:31:21;;;;;;;3.97;2.63;;;;;;;26.88;100.00;99566.06;5013512;28;20042;-80
2023/07/02 07:33:47;;;;;;;4.20;2.22;;;;;;;27.86;100.00;99602.91;5009754;28;20095;-83
2023/07/02 07:36:15;;;;;;;4.97;2.85;;;;;;;28.27;100.00;99652.44;5020957;28;20505;-81
2023/07/02 07:38:43;;;;;;;4.55;2.70;;;;;;;27.85;100.00;99578.75;5014838;28;20042;-80
2023/07/02 07:41:08;;;;;;;4.18;2.83;;;;;;;28.70;100.00;99651.41;5017310;28;20038;-80
2023/07/02 07:43:34;;;;;;;4.28;2.60;;;;;;;28.48;100.00;99636.25;5011420;28;20026;-81
2023/07/02 07:45:59;;;;;;;6.28;3.17;;;;;;;28.22;100.00;99556.69;5009669;28;20046;-80
2023/07/02 07:48:25;;;;;;;7.43;3.50;;;;;;;28.11;100.00;99566.56;4989015;28;20054;-85
2023/07/02 07:50:50;;;;;;;3.83;2.60;;;;;;;28.57;100.00;99599.50;4999923;28;20033;-80
2023/07/02 07:53:16;;;;;;;6.80;3.13;;;;;;;28.43;97.14;99565.59;5009217;28;20095;-82
2023/07/02 07:55:41;;;;;;;5.72;2.85;;;;;;;29.13;94.38;99636.00;4991670;28;20128;-83
2023/07/02 07:58:07;;;;;;;5.15;2.75;;;;;;;28.18;96.75;99480.56;5009135;28;20041;-82
2023/07/02 08:00:32;;;;;;;4.10;2.42;;;;;;;28.77;95.31;99598.56;5002100;28;20452;-83
2023/07/02 08:02:59;;;;;;;5.05;2.47;;;;;;;28.93;95.50;99581.84;5001619;28;20127;-82
2023/07/02 08:05:25;;;;;;;5.32;2.42;;;;;;;28.70;87.53;99593.84;5005241;28;20071;-83
2023/07/02 08:07:50;;;;;;;4.10;2.88;;;;;;;28.84;82.27;99563.78;5009886;28;20026;-84
2023/07/02 08:10:16;;;;;;;4.47;2.47;;;;;;;29.77;87.03;99659.84;5007719;28;20041;-81
2023/07/02 08:12:41;;;;;;;3.75;2.28;;;;;;;29.11;76.33;99608.25;4982783;28;20046;-78
2023/07/02 08:15:07;;;;;;;2.88;1.55;;;;;;;29.31;71.97;99655.06;5004820;28;20228;-77
2023/07/02 08:17:34;;;;;;;4.65;2.10;;;;;;;29.28;76.54;99604.00;5000026;28;20189;-77
2023/07/02 08:19:59;;;;;;;4.00;1.65;;;;;;;29.67;80.92;99643.63;4981455;28;20025;-78
2023/07/02 08:22:25;;;;;;;6.25;2.10;;;;;;;29.56;72.19;99565.31;4996254;28;20061;-78
2023/07/02 08:24:50;;;;;;;3.67;2.67;;;;;;;29.87;73.29;99657.16;4998340;28;20049;-79
2023/07/02 08:27:19;;;;;;;3.33;1.92;;;;;;;29.45;67.33;99650.13;5000844;28;20038;-80
2023/07/02 08:29:46;;;;;;;2.65;2.00;;;;;;;29.45;63.25;99662.78;4998983;28;20058;-78
2023/07/02 08:32:11;;;;;;;3.03;1.75;;;;;;;30.22;69.02;99653.00;4996759;28;20109;-79
2023/07/02 08:34:37;;;;;;;2.65;1.75;;;;;;;29.60;65.04;99588.38;5005556;28;20030;-79
2023/07/02 08:37:02;;;;;;;2.75;1.45;;;;;;;29.74;64.49;99581.72;5000704;28;20053;-79
2023/07/02 08:39:28;;;;;;;3.20;1.45;;;;;;;30.18;65.41;99601.03;5004720;28;20065;-80
2023/07/02 08:41:53;;;;;;;3.65;2.35;;;;;;;30.21;68.65;99576.38;4987126;28;20034;-78
2023/07/02 08:44:21;;;;;;;4.60;2.35;;;;;;;30.11;61.71;99616.13;4997722;28;20041;-80
2023/07/02 08:46:50;;;;;;;3.17;2.25;;;;;;;30.10;62.29;99644.19;5006065;28;20449;-80
2023/07/02 08:49:16;;;;;;;3.80;1.98;;;;;;;30.53;60.88;99615.75;4986263;28;20042;-80
2023/07/02 08:51:44;;;;;;;3.63;2.22;;;;;;;29.78;63.95;99653.47;4999018;28;20057;-80
2023/07/02 08:54:10;;;;;;;3.38;2.08;;;;;;;30.54;64.89;99565.16;5004642;28;20049;-79
2023/07/02 08:56:35;;;;;;;3.97;2.72;;;;;;;30.43;64.01;99628.47;4997684;28;20061;-79
2023/07/02 08:59:01;;;;;;;3.92;1.88;;;;;;;30.31;63.45;99578.22;4999549;28;20058;-78
2023/07/02 09:01:27;;;;;;;3.08;1.60;;;;;;;30.26;59.71;99622.81;4998031;28;20054;-79
2023/07/02 09:04:00;;;;;;;3.20;1.83;;;;;;;30.26;64.72;99662.56;4981961;28;20725;-79
2023/07/02 09:06:25;;;;;;;5.47;2.25;;;;;;;31.00;65.13;99648.25;4996629;28;20147;-78
2023/07/02 09:08:51;;;;;;;2.78;1.75;;;;;;;31.51;61.20;99640.53;5000766;28;20883;-87
2023/07/02 09:11:17;;;;;;;3.20;2.20;;;;;;;32.16;59.11;99630.28;4983358;28;20042;-78
2023/07/02 09:13:52;;;;;;;3.03;1.70;;;;;;;32.14;58.13;99571.75;5004005;28;20040;-78
2023/07/02 09:16:28;;;;;;;5.72;2.75;;;;;;;32.68;57.28;99643.03;5002673;28;20054;-82
2023/07/02 09:19:09;;;;;;;4.85;3.85;;;;;;;32.24;55.37;99561.63;5000417;28;20057;-70
2023/07/02 09:21:46;;;;;;;3.95;2.10;;;;;;;31.95;57.00;99636.06;5002311;28;20478;-69
2023/07/02 09:24:19;;;;;;;7.88;5.22;;;;;;;32.67;57.25;99645.94;4999167;28;20045;-69
2023/07/02 09:26:49;;;;;;;2.53;1.80;;;;;;;30.49;58.66;99558.34;4997475;28;20054;-70
2023/07/02 09:29:18;;;;;;;3.55;2.58;;;;;;;31.62;63.18;99626.75;4995788;28;20494;-70
2023/07/02 09:31:47;;;;;;;9.10;6.68;;;;;;;32.10;61.71;99620.09;5000017;28;20046;-69
2023/07/02 09:34:14;;;;;;;13.65;3.58;;;;;;;31.53;60.09;99581.56;5001037;28;20038;-70
2023/07/02 09:36:42;;;;;;;5.10;2.33;;;;;;;30.86;66.09;99562.03;5005845;28;20263;-69
2023/07/02 09:39:19;;;;;;;4.30;1.90;;;;;;;29.94;62.35;99627.69;4996818;28;20050;-69
2023/07/02 09:41:47;;;;;;;3.42;2.15;;;;;;;29.83;67.13;99634.09;5007961;28;20049;-70
2023/07/02 09:44:13;;;;;;;4.35;2.60;;;;;;;29.09;73.08;99561.59;5007791;28;20125;-71
2023/07/02 09:46:43;;;;;;;6.55;3.03;;;;;;;28.73;81.87;99569.28;5004866;28;20485;-70
2023/07/02 09:49:14;;;;;;;4.95;2.63;;;;;;;28.19;90.40;99545.19;5000517;28;20062;-68
2023/07/02 09:51:41;;;;;;;5.82;3.10;;;;;;;28.78;85.61;99596.75;5016991;28;20505;-74
2023/07/02 09:54:07;;;;;;;6.43;2.13;;;;;;;29.29;77.41;99617.38;5005538;28;20042;-74
2023/07/02 09:56:33;;;;;;;5.00;3.42;;;;;;;29.09;80.18;99550.78;5012181;28;20053;-75
2023/07/02 09:58:58;;;;;;;4.15;2.70;;;;;;;29.44;81.31;99643.00;5007804;28;20048;-75
2023/07/02 10:01:24;;;;;;;6.32;4.53;;;;;;;28.69;83.40;99573.25;5006179;28;20072;-74
2023/07/02 10:03:49;;;;;;;6.32;2.65;;;;;;;28.68;78.22;99566.13;5002130;28;20140;-74
2023/07/02 10:06:15;;;;;;;3.53;2.10;;;;;;;28.65;78.86;99645.56;5008705;28;20119;-75
2023/07/02 10:08:51;;;;;;;7.60;4.50;;;;;;;28.42;83.60;99575.53;5007220;28;20064;-75
2023/07/02 10:11:17;;;;;;;5.78;3.30;;;;;;;28.49;93.28;99616.34;5008456;28;20029;-77
2023/07/02 10:13:42;;;;;;;5.65;2.90;;;;;;;27.78;88.23;99476.78;5010114;28;20847;-76
2023/07/02 10:16:08;;;;;;;2.63;1.60;;;;;;;28.39;87.58;99546.09;5006187;28;20052;-76
2023/07/02 10:18:34;;;;;;;4.28;2.67;;;;;;;28.55;86.48;99567.25;5004206;28;20612;-76
2023/07/02 10:21:00;;;;;;;5.97;2.75;;;;;;;28.36;87.03;99608.47;5001798;28;20034;-76
2023/07/02 10:23:35;;;;;;;3.20;1.95;;;;;;;28.36;88.08;99634.59;4995324;28;20450;-75
2023/07/02 10:26:30;;;;;;;4.53;1.77;;;;;;;28.09;86.51;99635.13;5004779;28;20080;-75
2023/07/02 10:28:59;;;;;;;3.40;2.30;;;;;;;28.09;88.32;99622.47;4974207;28;20493;-76
2023/07/02 10:31:26;;;;;;;4.30;2.40;;;;;;;27.50;90.08;99550.22;5003515;28;20038;-76
2023/07/02 10:33:51;;;;;;;10.93;2.70;;;;;;;27.16;94.88;99543.09;5003313;28;20046;-75
2023/07/02 10:36:21;;;;;;;4.50;3.25;;;;;;;27.25;100.00;99546.03;5008861;28;20226;-74
2023/07/02 10:38:47;;;;;;;3.90;2.33;;;;;;;27.61;100.00;99643.66;4988883;28;20794;-75
2023/07/02 10:41:24;;;;;;;3.20;2.08;;;;;;;27.13;100.00;99551.41;5009046;28;20061;-74
2023/07/02 10:43:49;;;;;;;5.38;2.83;;;;;;;25.51;100.00;99369.00;5008644;28;20041;-75
2023/07/02 10:46:20;;;;;;;5.13;2.63;;;;;;;26.84;100.00;99561.06;5009079;28;20068;-75
2023/07/02 10:48:54;;;;;;;4.70;2.53;;;;;;;27.00;100.00;99584.91;5005365;28;20046;-74
2023/07/02 10:51:21;;;;;;;6.57;2.72;;;;;;;26.73;100.00;99537.69;5007104;28;20088;-74
2023/07/02 10:53:57;;;;;;;6.05;3.08;;;;;;;27.42;100.00;99571.56;5006733;28;20495;-74
2023/07/02 10:56:22;;;;;;;5.25;2.03;;;;;;;27.53;100.00;99602.03;5007858;28;20713;-75
2023/07/02 10:58:51;;;;;;;6.65;3.05;;;;;;;28.12;100.00;99615.97;5008415;28;20026;-75
2023/07/02 11:01:23;;;;;;;8.00;3.05;;;;;;;28.03;100.00;99604.16;4990077;28;20040;-75
2023/07/02 11:03:56;;;;;;;6.35;3.42;;;;;;;28.13;100.00;99617.69;4995569;28;20053;-75
2023/07/02 11:06:21;;;;;;;5.22;2.85;;;;;;;27.92;100.00;99580.78;5003238;28;20041;-75
2023/07/02 11:08:47;;;;;;;3.55;2.10;;;;;;;27.77;100.00;99600.94;5007520;28;20373;-76
2023/07/02 11:11:12;;;;;;;3.92;2.53;;;;;;;28.16;100.00;99606.63;5008450;28;20649;-74
2023/07/02 11:13:49;;;;;;;3.72;2.10;;;;;;;27.61;100.00;99603.22;5008820;28;20033;-74
2023/07/02 11:16:19;;;;;;;4.50;2.50;;;;;;;27.61;100.00;99624.78;5007274;28;20095;-75
2023/07/02 11:18:45;;;;;;;3.88;3.08;;;;;;;27.85;100.00;99589.53;5005099;28;20041;-75
2023/07/02 11:21:10;;;;;;;7.28;2.58;;;;;;;27.60;100.00;99561.91;5005735;28;20052;-75
2023/07/02 11:23:36;;;;;;;3.28;1.88;;;;;;;27.44;100.00;99515.69;5006723;28;20046;-75